sensor_id;sensor_type;location;lat;lon;timestamp;temperature;humidity
22224;DHT22;11281;52.194;21.006;2023-04-01T00:03:16;9.20;99.90
22224;DHT22;11281;52.194;21.006;2023-04-01T00:07:18;9.20;99.90
22224;DHT22;11281;52.194;21.006;2023-04-01T00:11:20;9.10;99.90
22224;DHT22;11281;52.194;21.006;2023-04-01T00:15:22;9.10;99.90
22224;DHT22;11281;52.194;21.006;2023-04-01T00:19:23;9.20;99.90
22224;DHT22;11281;52.194;21.006;2023-04-01T00:23:25;9.20;99.90
22224;DHT22;11281;52.194;21.006;2023-04-01T00:27:27;9.20;99.90
22224;DHT22;11281;52.194;21.006;2023-04-01T00:31:29;9.10;99.90
22224;DHT22;11281;52.194;21.006;2023-04-01T00:35:31;9.20;99.90
22224;DHT22;11281;52.194;21.006;2023-04-01T00:39:34;9.20;99.90
22224;DHT22;11281;52.194;21.006;2023-04-01T00:43:36;9.20;99.90
22224;DHT22;11281;52.194;21.006;2023-04-01T00:47:38;9.20;99.90
22224;DHT22;11281;52.194;21.006;2023-04-01T00:51:41;9.20;99.90
22224;DHT22;11281;52.194;21.006;2023-04-01T00:55:53;9.20;99.90
22224;DHT22;11281;52.194;21.006;2023-04-01T00:59:57;9.20;99.90
22224;DHT22;11281;52.194;21.006;2023-04-01T01:04:01;9.20;99.90
22224;DHT22;11281;52.194;21.006;2023-04-01T01:08:13;9.20;99.90
22224;DHT22;11281;52.194;21.006;2023-04-01T01:12:26;9.20;99.90
22224;DHT22;11281;52.194;21.006;2023-04-01T01:16:51;9.20;99.90
22224;DHT22;11281;52.194;21.006;2023-04-01T01:21:30;9.20;99.90
22224;DHT22;11281;52.194;21.006;2023-04-01T01:30:15;9.20;99.90
22224;DHT22;11281;52.194;21.006;2023-04-01T01:38:42;9.20;99.90
22224;DHT22;11281;52.194;21.006;2023-04-01T01:42:48;9.20;99.90
22224;DHT22;11281;52.194;21.006;2023-04-01T01:46:51;9.20;99.90
22224;DHT22;11281;52.194;21.006;2023-04-01T01:50:53;9.20;99.90
22224;DHT22;11281;52.194;21.006;2023-04-01T01:54:57;9.20;99.90
22224;DHT22;11281;52.194;21.006;2023-04-01T01:59:08;9.10;99.90
22224;DHT22;11281;52.194;21.006;2023-04-01T02:03:13;9.10;99.90
22224;DHT22;11281;52.194;21.006;2023-04-01T02:07:25;9.10;99.90
22224;DHT22;11281;52.194;21.006;2023-04-01T02:16:00;9.10;99.90
22224;DHT22;11281;52.194;21.006;2023-04-01T02:20:19;9.10;99.90
22224;DHT22;11281;52.194;21.006;2023-04-01T02:24:23;9.10;99.90
22224;DHT22;11281;52.194;21.006;2023-04-01T02:28:26;9.10;99.90
22224;DHT22;11281;52.194;21.006;2023-04-01T02:32:31;9.10;99.90
22224;DHT22;11281;52.194;21.006;2023-04-01T02:36:35;9.00;99.90
22224;DHT22;11281;52.194;21.006;2023-04-01T02:40:49;9.10;99.90
22224;DHT22;11281;52.194;21.006;2023-04-01T02:44:51;9.10;99.90
22224;DHT22;11281;52.194;21.006;2023-04-01T02:48:53;9.10;99.90
22224;DHT22;11281;52.194;21.006;2023-04-01T02:52:55;9.10;99.90
22224;DHT22;11281;52.194;21.006;2023-04-01T02:56:57;9.10;99.90
22224;DHT22;11281;52.194;21.006;2023-04-01T03:00:59;9.10;99.90
22224;DHT22;11281;52.194;21.006;2023-04-01T03:05:01;9.10;99.90
22224;DHT22;11281;52.194;21.006;2023-04-01T03:09:02;9.10;99.90
22224;DHT22;11281;52.194;21.006;2023-04-01T03:13:04;9.10;99.90
22224;DHT22;11281;52.194;21.006;2023-04-01T03:17:06;9.10;99.90
22224;DHT22;11281;52.194;21.006;2023-04-01T03:21:18;9.10;99.90
22224;DHT22;11281;52.194;21.006;2023-04-01T03:25:21;9.10;99.90
22224;DHT22;11281;52.194;21.006;2023-04-01T03:29:23;9.10;99.90
22224;DHT22;11281;52.194;21.006;2023-04-01T03:33:25;9.10;99.90
22224;DHT22;11281;52.194;21.006;2023-04-01T03:37:27;9.10;99.90
22224;DHT22;11281;52.194;21.006;2023-04-01T03:41:29;9.10;99.90
22224;DHT22;11281;52.194;21.006;2023-04-01T03:45:31;9.10;99.90
22224;DHT22;11281;52.194;21.006;2023-04-01T03:49:33;9.10;99.90
22224;DHT22;11281;52.194;21.006;2023-04-01T03:53:34;9.10;99.90
22224;DHT22;11281;52.194;21.006;2023-04-01T03:57:36;9.10;99.90
22224;DHT22;11281;52.194;21.006;2023-04-01T04:01:38;9.10;99.90
22224;DHT22;11281;52.194;21.006;2023-04-01T04:05:47;9.10;99.90
22224;DHT22;11281;52.194;21.006;2023-04-01T04:09:50;9.10;99.90
22224;DHT22;11281;52.194;21.006;2023-04-01T04:13:52;9.00;99.90
22224;DHT22;11281;52.194;21.006;2023-04-01T04:17:54;9.10;99.90
22224;DHT22;11281;52.194;21.006;2023-04-01T04:21:56;9.00;99.90
22224;DHT22;11281;52.194;21.006;2023-04-01T04:26:02;9.00;99.90
22224;DHT22;11281;52.194;21.006;2023-04-01T04:30:07;9.10;99.90
22224;DHT22;11281;52.194;21.006;2023-04-01T04:34:10;9.10;99.90
22224;DHT22;11281;52.194;21.006;2023-04-01T04:38:12;9.10;99.90
22224;DHT22;11281;52.194;21.006;2023-04-01T04:42:13;9.10;99.90
22224;DHT22;11281;52.194;21.006;2023-04-01T04:46:15;9.10;99.90
22224;DHT22;11281;52.194;21.006;2023-04-01T04:50:18;9.10;99.90
22224;DHT22;11281;52.194;21.006;2023-04-01T04:54:19;9.20;99.90
22224;DHT22;11281;52.194;21.006;2023-04-01T04:58:21;9.20;99.90
22224;DHT22;11281;52.194;21.006;2023-04-01T05:02:23;9.20;99.90
22224;DHT22;11281;52.194;21.006;2023-04-01T05:06:25;9.20;99.90
22224;DHT22;11281;52.194;21.006;2023-04-01T05:10:31;9.20;99.90
22224;DHT22;11281;52.194;21.006;2023-04-01T05:14:33;9.20;99.90
22224;DHT22;11281;52.194;21.006;2023-04-01T05:18:35;9.10;99.90
22224;DHT22;11281;52.194;21.006;2023-04-01T05:22:36;9.10;99.90
22224;DHT22;11281;52.194;21.006;2023-04-01T05:26:38;9.10;99.90
22224;DHT22;11281;52.194;21.006;2023-04-01T05:30:40;9.00;99.90
22224;DHT22;11281;52.194;21.006;2023-04-01T05:34:43;9.00;99.90
22224;DHT22;11281;52.194;21.006;2023-04-01T05:38:45;9.00;99.90
22224;DHT22;11281;52.194;21.006;2023-04-01T05:42:50;9.00;99.90
22224;DHT22;11281;52.194;21.006;2023-04-01T05:46:51;9.00;99.90
22224;DHT22;11281;52.194;21.006;2023-04-01T05:50:53;9.10;99.90
22224;DHT22;11281;52.194;21.006;2023-04-01T05:54:55;9.10;99.90
22224;DHT22;11281;52.194;21.006;2023-04-01T05:58:56;9.10;99.90
22224;DHT22;11281;52.194;21.006;2023-04-01T06:02:59;9.20;99.90
22224;DHT22;11281;52.194;21.006;2023-04-01T06:07:01;9.30;99.90
22224;DHT22;11281;52.194;21.006;2023-04-01T06:11:06;9.30;99.90
22224;DHT22;11281;52.194;21.006;2023-04-01T06:24:31;9.20;99.90
22224;DHT22;11281;52.194;21.006;2023-04-01T06:56:29;10.10;99.90
22224;DHT22;11281;52.194;21.006;2023-04-01T07:00:43;10.10;99.90
22224;DHT22;11281;52.194;21.006;2023-04-01T07:04:51;10.20;99.90
22224;DHT22;11281;52.194;21.006;2023-04-01T07:08:58;10.30;99.90
22224;DHT22;11281;52.194;21.006;2023-04-01T07:13:13;10.80;99.90
22224;DHT22;11281;52.194;21.006;2023-04-01T07:17:27;10.60;99.90
22224;DHT22;11281;52.194;21.006;2023-04-01T07:21:45;10.60;99.90
22224;DHT22;11281;52.194;21.006;2023-04-01T07:26:00;10.50;99.90
22224;DHT22;11281;52.194;21.006;2023-04-01T07:30:19;10.90;99.90
22224;DHT22;11281;52.194;21.006;2023-04-01T07:35:13;11.60;99.90
22224;DHT22;11281;52.194;21.006;2023-04-01T07:43:29;11.40;99.90
22224;DHT22;11281;52.194;21.006;2023-04-01T07:48:27;11.30;99.90
22224;DHT22;11281;52.194;21.006;2023-04-01T07:52:47;11.60;99.90
22224;DHT22;11281;52.194;21.006;2023-04-01T08:01:36;12.20;99.90
22224;DHT22;11281;52.194;21.006;2023-04-01T08:06:05;11.80;99.90
22224;DHT22;11281;52.194;21.006;2023-04-01T08:14:58;11.60;99.90
22224;DHT22;11281;52.194;21.006;2023-04-01T08:19:21;11.50;99.90
22224;DHT22;11281;52.194;21.006;2023-04-01T08:23:48;11.20;99.90
22224;DHT22;11281;52.194;21.006;2023-04-01T08:36:59;11.60;99.90
22224;DHT22;11281;52.194;21.006;2023-04-01T08:50:43;11.60;99.90
22224;DHT22;11281;52.194;21.006;2023-04-01T08:55:19;11.30;99.90
22224;DHT22;11281;52.194;21.006;2023-04-01T09:30:53;11.40;99.90
22224;DHT22;11281;52.194;21.006;2023-04-01T09:35:22;11.40;99.90
22224;DHT22;11281;52.194;21.006;2023-04-01T10:02:33;11.90;99.90
22224;DHT22;11281;52.194;21.006;2023-04-01T10:07:24;11.50;99.90
22224;DHT22;11281;52.194;21.006;2023-04-01T10:22:01;11.90;99.90
22224;DHT22;11281;52.194;21.006;2023-04-01T10:26:21;12.40;99.90
22224;DHT22;11281;52.194;21.006;2023-04-01T10:45:10;12.20;99.90
22224;DHT22;11281;52.194;21.006;2023-04-01T10:53:37;12.30;99.90
22224;DHT22;11281;52.194;21.006;2023-04-01T11:02:55;12.10;99.90
22224;DHT22;11281;52.194;21.006;2023-04-01T11:25:50;12.40;99.90
22224;DHT22;11281;52.194;21.006;2023-04-01T11:48:19;12.50;99.90
22224;DHT22;11281;52.194;21.006;2023-04-01T11:53:00;12.60;99.90
22224;DHT22;11281;52.194;21.006;2023-04-01T12:24:20;11.40;99.90
22224;DHT22;11281;52.194;21.006;2023-04-01T12:33:17;11.20;99.90
22224;DHT22;11281;52.194;21.006;2023-04-01T12:42:22;11.10;99.90
22224;DHT22;11281;52.194;21.006;2023-04-01T12:56:07;11.50;99.90
22224;DHT22;11281;52.194;21.006;2023-04-01T13:31:27;9.60;99.90
22224;DHT22;11281;52.194;21.006;2023-04-01T13:35:57;9.50;99.90
22224;DHT22;11281;52.194;21.006;2023-04-01T13:44:37;9.40;99.90
22224;DHT22;11281;52.194;21.006;2023-04-01T13:49:11;9.40;99.90
22224;DHT22;11281;52.194;21.006;2023-04-01T14:11:36;9.20;99.90
22224;DHT22;11281;52.194;21.006;2023-04-01T14:16:27;9.10;99.90
22224;DHT22;11281;52.194;21.006;2023-04-01T14:44:36;9.10;99.90
22224;DHT22;11281;52.194;21.006;2023-04-01T14:53:11;9.00;99.90
22224;DHT22;11281;52.194;21.006;2023-04-01T14:57:27;8.90;99.90
22224;DHT22;11281;52.194;21.006;2023-04-01T15:01:55;9.00;99.90
22224;DHT22;11281;52.194;21.006;2023-04-01T15:06:36;9.00;99.90
22224;DHT22;11281;52.194;21.006;2023-04-01T15:34:35;9.00;99.90
22224;DHT22;11281;52.194;21.006;2023-04-01T15:38:58;9.00;99.90
22224;DHT22;11281;52.194;21.006;2023-04-01T15:43:48;9.10;99.90
22224;DHT22;11281;52.194;21.006;2023-04-01T16:06:34;8.80;99.90
22224;DHT22;11281;52.194;21.006;2023-04-01T16:15:25;8.70;99.90
22224;DHT22;11281;52.194;21.006;2023-04-01T16:37:45;8.80;99.90
22224;DHT22;11281;52.194;21.006;2023-04-01T16:46:53;8.80;99.90
22224;DHT22;11281;52.194;21.006;2023-04-01T16:51:18;8.60;99.90
22224;DHT22;11281;52.194;21.006;2023-04-01T16:55:21;8.60;99.90
22224;DHT22;11281;52.194;21.006;2023-04-01T16:59:40;8.50;99.90
22224;DHT22;11281;52.194;21.006;2023-04-01T17:04:07;8.40;99.90
22224;DHT22;11281;52.194;21.006;2023-04-01T17:16:55;8.20;99.90
22224;DHT22;11281;52.194;21.006;2023-04-01T17:21:47;8.20;99.90
22224;DHT22;11281;52.194;21.006;2023-04-01T17:30:39;8.00;99.90
22224;DHT22;11281;52.194;21.006;2023-04-01T17:48:42;7.80;99.90
22224;DHT22;11281;52.194;21.006;2023-04-01T17:53:05;7.80;99.90
22224;DHT22;11281;52.194;21.006;2023-04-01T18:18:58;7.80;99.90
22224;DHT22;11281;52.194;21.006;2023-04-01T18:27:22;7.70;99.90
22224;DHT22;11281;52.194;21.006;2023-04-01T18:31:35;7.70;99.90
22224;DHT22;11281;52.194;21.006;2023-04-01T18:40:21;7.70;99.90
22224;DHT22;11281;52.194;21.006;2023-04-01T18:53:28;7.60;99.90
22224;DHT22;11281;52.194;21.006;2023-04-01T18:57:50;7.60;99.90
22224;DHT22;11281;52.194;21.006;2023-04-01T19:02:35;7.60;99.90
22224;DHT22;11281;52.194;21.006;2023-04-01T19:06:48;7.60;99.90
22224;DHT22;11281;52.194;21.006;2023-04-01T19:28:47;7.50;99.90
22224;DHT22;11281;52.194;21.006;2023-04-01T19:46:36;7.40;99.90
22224;DHT22;11281;52.194;21.006;2023-04-01T19:50:57;7.30;99.90
22224;DHT22;11281;52.194;21.006;2023-04-01T19:55:36;7.20;99.90
22224;DHT22;11281;52.194;21.006;2023-04-01T20:00:22;7.20;99.90
22224;DHT22;11281;52.194;21.006;2023-04-01T20:04:48;7.30;99.90
22224;DHT22;11281;52.194;21.006;2023-04-01T20:09:21;7.30;99.90
22224;DHT22;11281;52.194;21.006;2023-04-01T20:17:59;7.10;99.90
22224;DHT22;11281;52.194;21.006;2023-04-01T20:22:09;7.10;99.90
22224;DHT22;11281;52.194;21.006;2023-04-01T20:26:33;7.10;99.90
22224;DHT22;11281;52.194;21.006;2023-04-01T20:50:19;7.00;99.90
22224;DHT22;11281;52.194;21.006;2023-04-01T20:54:46;7.00;99.90
22224;DHT22;11281;52.194;21.006;2023-04-01T20:59:16;7.00;99.90
22224;DHT22;11281;52.194;21.006;2023-04-01T21:12:46;6.90;99.90
22224;DHT22;11281;52.194;21.006;2023-04-01T21:17:08;6.90;99.90
22224;DHT22;11281;52.194;21.006;2023-04-01T21:53:40;6.70;99.90
22224;DHT22;11281;52.194;21.006;2023-04-01T22:11:34;6.60;99.90
22224;DHT22;11281;52.194;21.006;2023-04-01T22:25:21;6.50;99.90
22224;DHT22;11281;52.194;21.006;2023-04-01T22:29:41;6.50;99.90
22224;DHT22;11281;52.194;21.006;2023-04-01T22:34:08;6.40;99.90
22224;DHT22;11281;52.194;21.006;2023-04-01T22:43:01;6.40;99.90
22224;DHT22;11281;52.194;21.006;2023-04-01T22:47:23;6.30;99.90
22224;DHT22;11281;52.194;21.006;2023-04-01T22:55:49;6.20;99.90
22224;DHT22;11281;52.194;21.006;2023-04-01T23:00:00;6.20;99.90
22224;DHT22;11281;52.194;21.006;2023-04-01T23:04:04;6.20;99.90
22224;DHT22;11281;52.194;21.006;2023-04-01T23:12:49;6.20;99.90
22224;DHT22;11281;52.194;21.006;2023-04-01T23:17:16;6.20;99.90
22224;DHT22;11281;52.194;21.006;2023-04-01T23:26:09;6.20;99.90
22224;DHT22;11281;52.194;21.006;2023-04-01T23:34:39;6.20;99.90
22224;DHT22;11281;52.194;21.006;2023-04-01T23:38:48;6.20;99.90
22224;DHT22;11281;52.194;21.006;2023-04-01T23:42:50;6.10;99.90
22224;DHT22;11281;52.194;21.006;2023-04-01T23:46:53;6.10;99.90
22224;DHT22;11281;52.194;21.006;2023-04-01T23:50:57;6.20;99.90
22224;DHT22;11281;52.194;21.006;2023-04-01T23:59:37;6.20;99.90
